FR-0076 weather

Centre Hospitalier Heliport
Dole, Bourgogne-Franche-Comté, France

Public forecast

Using degrees Celsius for public forecast. Weather courtesy of forecast.io.

Closest aviation weather report (METAR) to Centre Hospitalier Heliport

Closest report is Dole-Tavaux Airport, 2.9 nm (5.3 km) SSW. Retrieved 2020/08/05 14:00 UTC (14 minutes ago):

LFGJ 051400Z AUTO 06012KT 010V090 CAVOK 28/08 Q1015 TEMPO 04015G25KT

Closest aviation forecast (TAF) to Centre Hospitalier Heliport

Forecast is more than 12 hours old.

Closest forecast is Dole-Tavaux Airport, 2.9 nm (5.3 km) SSW. Retrieved 2020/06/22 09:21 UTC (1 month ago):

TAF LFGJ 220800Z 2209/2221 01008KT 9999 FEW035 BKN053 BECMG 2212/2215 CAVOK